createdAt,value
2022-09-21T00:03:16.285Z,97735.34
2022-09-21T00:07:13.276Z,97721.22
2022-09-21T00:11:25.088Z,97730.03
2022-09-21T00:15:22.706Z,97729.88
2022-09-21T00:19:19.664Z,97733.53
2022-09-21T00:23:16.804Z,97720.63
2022-09-21T00:27:14.742Z,97733.91
2022-09-21T00:31:18.230Z,97694.31
2022-09-21T00:35:15.275Z,97719.78
2022-09-21T00:39:12.491Z,97698.19
2022-09-21T00:43:15.495Z,97724.88
2022-09-21T00:47:17.378Z,97723.56
2022-09-21T00:51:15.358Z,97721.47
2022-09-21T00:55:33.907Z,97726.06
2022-09-21T00:59:35.675Z,97727.84
2022-09-21T01:03:33.199Z,97735.56
2022-09-21T01:07:36.663Z,97740.00
2022-09-21T01:12:03.169Z,97741.94
2022-09-21T01:16:11.949Z,97710.47
2022-09-21T01:20:40.294Z,97745.63
2022-09-21T01:25:01.458Z,97731.84
2022-09-21T01:29:34.239Z,97741.59
2022-09-21T01:33:41.613Z,97759.88
2022-09-21T01:38:03.842Z,97746.25
2022-09-21T01:42:06.481Z,97759.66
2022-09-21T01:46:09.885Z,97742.81
2022-09-21T01:50:11.815Z,97748.28
2022-09-21T01:54:17.835Z,97739.44
2022-09-21T01:58:39.595Z,97752.41
2022-09-21T02:03:05.529Z,97737.03
2022-09-21T02:07:02.893Z,97738.97
2022-09-21T02:11:03.049Z,97747.38
2022-09-21T02:15:02.915Z,97751.81
2022-09-21T02:19:25.751Z,97747.31
2022-09-21T02:23:50.272Z,97748.44
2022-09-21T02:28:04.268Z,97742.75
2022-09-21T02:32:35.233Z,97741.75
2022-09-21T02:36:56.999Z,97748.16
2022-09-21T02:41:14.241Z,97739.72
2022-09-21T02:45:25.637Z,97751.03
2022-09-21T02:49:37.463Z,97745.69
2022-09-21T02:53:38.448Z,97756.41
2022-09-21T02:57:37.840Z,97764.75
2022-09-21T03:01:36.023Z,97758.25
2022-09-21T03:05:33.123Z,97759.97
2022-09-21T03:09:30.055Z,97774.72
2022-09-21T03:13:27.189Z,97775.16
2022-09-21T03:17:24.663Z,97762.91
2022-09-21T03:21:22.161Z,97761.22
2022-09-21T03:25:19.149Z,97776.25
2022-09-21T03:29:16.230Z,97771.03
2022-09-21T03:33:13.296Z,97760.38
2022-09-21T03:37:11.324Z,97765.94
2022-09-21T03:41:08.461Z,97768.84
2022-09-21T03:45:06.225Z,97741.50
2022-09-21T03:49:03.202Z,97769.91
2022-09-21T03:53:00.149Z,97770.91
2022-09-21T03:56:57.253Z,97766.00
2022-09-21T04:00:54.579Z,97791.91
2022-09-21T04:04:51.710Z,97769.66
2022-09-21T04:08:51.176Z,97786.88
2022-09-21T04:12:48.762Z,97792.44
2022-09-21T04:16:46.372Z,97793.91
2022-09-21T04:20:43.316Z,97799.81
2022-09-21T04:24:43.320Z,97785.19
2022-09-21T04:28:40.254Z,97770.63
2022-09-21T04:32:37.230Z,97792.44
2022-09-21T04:36:36.698Z,97816.25
2022-09-21T04:40:36.430Z,97811.31
2022-09-21T04:44:33.493Z,97810.50
2022-09-21T04:48:30.445Z,97822.22
2022-09-21T04:52:28.274Z,97808.59
2022-09-21T04:56:25.404Z,97817.00
2022-09-21T05:00:22.543Z,97821.59
2022-09-21T05:04:19.555Z,97826.78
2022-09-21T05:08:17.568Z,97811.63
2022-09-21T05:12:14.607Z,97838.34
2022-09-21T05:16:11.947Z,97840.16
2022-09-21T05:20:10.779Z,97849.66
2022-09-21T05:24:07.972Z,97832.25
2022-09-21T05:28:05.506Z,97834.94
2022-09-21T05:32:28.881Z,97855.06
2022-09-21T05:36:45.115Z,97856.25
2022-09-21T05:40:42.563Z,97850.44
2022-09-21T05:44:39.805Z,97856.78
2022-09-21T05:48:48.066Z,97870.16
2022-09-21T05:53:12.508Z,97869.41
2022-09-21T05:57:31.361Z,97864.84
2022-09-21T06:02:06.544Z,97837.88
2022-09-21T06:06:08.349Z,97866.06
2022-09-21T06:10:06.069Z,97869.16
2022-09-21T06:14:03.189Z,97866.81
2022-09-21T06:18:00.130Z,97850.66
2022-09-21T06:21:57.265Z,97858.81
2022-09-21T06:25:58.218Z,97877.44
2022-09-21T06:29:55.540Z,97879.03
2022-09-21T06:33:52.460Z,97881.84
2022-09-21T06:37:49.422Z,97859.63
2022-09-21T06:41:46.446Z,97885.66
2022-09-21T06:45:43.787Z,97877.69
2022-09-21T06:49:42.652Z,97877.28
2022-09-21T06:53:41.941Z,97861.59
2022-09-21T06:57:39.793Z,97863.31
2022-09-21T07:01:37.008Z,97872.31
2022-09-21T07:05:34.574Z,97875.69
2022-09-21T07:13:50.484Z,97878.94
2022-09-21T07:17:52.228Z,97888.06
2022-09-21T07:21:49.624Z,97886.59
2022-09-21T07:25:50.205Z,97895.44
2022-09-21T07:29:47.147Z,97882.72
2022-09-21T07:33:48.503Z,97890.78
2022-09-21T07:37:45.399Z,97890.53
2022-09-21T07:41:42.409Z,97896.41
2022-09-21T07:45:39.738Z,97897.88
2022-09-21T07:49:36.735Z,97900.72
2022-09-21T07:53:39.671Z,97893.94
2022-09-21T07:57:54.960Z,97882.63
2022-09-21T08:01:51.947Z,97887.88
2022-09-21T08:05:48.946Z,97893.91
2022-09-21T08:09:49.531Z,97902.00
2022-09-21T08:13:46.541Z,97897.38
2022-09-21T08:17:43.692Z,97870.50
2022-09-21T08:21:41.612Z,97896.41
2022-09-21T08:25:38.582Z,97888.91
2022-09-21T08:29:36.347Z,97900.44
2022-09-21T08:33:33.300Z,97878.69
2022-09-21T08:37:32.114Z,97889.66
2022-09-21T08:42:10.370Z,97896.06
2022-09-21T08:46:16.182Z,97898.44
2022-09-21T08:50:38.144Z,97876.59
2022-09-21T08:54:40.314Z,97901.63
2022-09-21T08:58:37.662Z,97904.88
2022-09-21T09:03:15.968Z,97902.69
2022-09-21T09:07:28.760Z,97889.09
2022-09-21T09:11:50.045Z,97893.22
2022-09-21T09:16:04.262Z,97888.25
2022-09-21T09:20:23.703Z,97875.97
2022-09-21T09:24:51.632Z,97896.22
2022-09-21T09:29:02.148Z,97895.09
2022-09-21T09:33:14.832Z,97882.03
2022-09-21T09:37:17.619Z,97874.84
2022-09-21T09:41:41.595Z,97884.13
2022-09-21T09:46:16.621Z,97880.66
2022-09-21T09:50:35.202Z,97875.09
2022-09-21T09:54:35.851Z,97874.06
2022-09-21T09:58:49.720Z,97858.59
2022-09-21T10:02:53.326Z,97857.19
2022-09-21T10:06:50.283Z,97849.72
2022-09-21T10:10:48.570Z,97846.09
2022-09-21T10:15:00.804Z,97833.19
2022-09-21T10:19:01.946Z,97844.72
2022-09-21T10:23:00.940Z,97840.56
2022-09-21T10:27:12.519Z,97840.06
2022-09-21T10:31:25.056Z,97838.34
2022-09-21T10:35:22.385Z,97803.41
2022-09-21T10:39:31.966Z,97822.78
2022-09-21T10:43:43.673Z,97814.25
2022-09-21T10:47:48.430Z,97823.56
2022-09-21T10:51:49.466Z,97811.72
2022-09-21T10:56:18.808Z,97815.59
2022-09-21T11:00:22.125Z,97819.41
2022-09-21T11:04:32.133Z,97822.47
2022-09-21T11:08:59.153Z,97807.38
2022-09-21T11:13:56.656Z,97804.19
2022-09-21T11:18:14.795Z,97819.72
2022-09-21T11:22:42.295Z,97815.75
2022-09-21T11:27:11.289Z,97784.88
2022-09-21T11:31:41.281Z,97813.09
2022-09-21T11:36:05.422Z,97782.56
2022-09-21T11:40:32.936Z,97804.78
2022-09-21T11:44:53.254Z,97788.06
2022-09-21T11:49:15.781Z,97802.03
2022-09-21T11:54:09.147Z,97789.41
2022-09-21T11:58:27.481Z,97786.09
2022-09-21T12:02:52.907Z,97778.44
2022-09-21T12:07:20.562Z,97774.19
2022-09-21T12:11:39.910Z,97775.19
2022-09-21T12:15:59.921Z,97769.81
2022-09-21T12:20:43.520Z,97757.31
2022-09-21T12:24:51.924Z,97759.78
2022-09-21T12:29:01.091Z,97760.56
2022-09-21T12:33:10.014Z,97765.31
2022-09-21T12:37:31.986Z,97751.78
2022-09-21T12:41:58.604Z,97746.03
2022-09-21T12:46:21.718Z,97748.22
2022-09-21T12:50:49.484Z,97744.53
2022-09-21T12:55:30.297Z,97752.03
2022-09-21T13:00:00.840Z,97759.25
2022-09-21T13:04:22.518Z,97754.56
2022-09-21T13:08:36.896Z,97746.69
2022-09-21T13:12:44.946Z,97745.06
2022-09-21T13:16:42.539Z,97748.97
2022-09-21T13:20:41.953Z,97749.00
2022-09-21T13:24:40.413Z,97740.28
2022-09-21T13:29:04.515Z,97730.88
2022-09-21T13:33:04.471Z,97725.66
2022-09-21T13:37:19.611Z,97739.25
2022-09-21T13:41:19.691Z,97735.94
2022-09-21T13:45:19.414Z,97741.88
2022-09-21T13:49:34.088Z,97720.59
2022-09-21T13:53:40.429Z,97709.34
2022-09-21T13:57:47.202Z,97717.53
2022-09-21T14:01:47.158Z,97732.47
2022-09-21T14:05:50.576Z,97721.13
2022-09-21T14:10:02.810Z,97717.66
2022-09-21T14:14:12.215Z,97724.41
2022-09-21T14:18:17.764Z,97718.88
2022-09-21T14:22:14.727Z,97716.25
2022-09-21T14:26:37.461Z,97707.84
2022-09-21T14:30:37.136Z,97707.56
2022-09-21T14:34:39.537Z,97702.78
2022-09-21T14:38:54.354Z,97702.19
2022-09-21T14:42:55.581Z,97705.34
2022-09-21T14:47:07.925Z,97680.63
2022-09-21T14:51:27.330Z,97691.19
2022-09-21T14:55:48.029Z,97695.53
2022-09-21T15:00:28.611Z,97686.53
2022-09-21T15:04:54.738Z,97687.75
2022-09-21T15:09:54.408Z,97682.84
2022-09-21T15:14:17.072Z,97674.88
2022-09-21T15:18:25.662Z,97683.88
2022-09-21T15:22:23.101Z,97676.41
2022-09-21T15:26:32.568Z,97688.34
2022-09-21T15:30:33.286Z,97670.59
2022-09-21T15:34:30.480Z,97664.75
2022-09-21T15:38:31.909Z,97671.63
2022-09-21T15:42:30.161Z,97665.34
2022-09-21T15:46:27.391Z,97656.63
2022-09-21T15:50:28.502Z,97660.88
2022-09-21T15:54:38.169Z,97676.28
2022-09-21T15:58:40.578Z,97685.19
2022-09-21T16:02:40.864Z,97655.38
2022-09-21T16:06:47.074Z,97655.31
2022-09-21T16:10:44.805Z,97669.72
2022-09-21T16:14:53.936Z,97668.47
2022-09-21T16:19:00.223Z,97683.72
2022-09-21T16:23:11.740Z,97683.25
2022-09-21T16:27:18.821Z,97661.88
2022-09-21T16:31:28.722Z,97657.91
2022-09-21T16:35:29.425Z,97644.81
2022-09-21T16:39:27.563Z,97683.56
2022-09-21T16:43:24.514Z,97656.81
2022-09-21T16:47:28.091Z,97683.34
2022-09-21T16:51:27.947Z,97683.03
2022-09-21T16:55:28.909Z,97694.72
2022-09-21T16:59:27.784Z,97692.34
2022-09-21T17:03:25.106Z,97678.81
2022-09-21T17:07:22.228Z,97686.28
2022-09-21T17:11:20.363Z,97702.63
2022-09-21T17:15:17.376Z,97695.53
2022-09-21T17:19:14.738Z,97700.03
2022-09-21T17:23:12.177Z,97689.28
2022-09-21T17:27:09.605Z,97710.25
2022-09-21T17:31:09.422Z,97713.66
2022-09-21T17:35:36.932Z,97720.47
2022-09-21T17:39:33.903Z,97705.19
2022-09-21T17:43:50.206Z,97730.19
2022-09-21T17:47:50.394Z,97710.84
2022-09-21T17:52:06.163Z,97735.28
2022-09-21T17:56:32.942Z,97727.59
2022-09-21T18:01:02.073Z,97721.91
2022-09-21T18:05:10.109Z,97734.50
2022-09-21T18:09:07.767Z,97734.50
2022-09-21T18:13:48.168Z,97725.72
2022-09-21T18:18:12.731Z,97734.22
2022-09-21T18:22:57.489Z,97747.03
2022-09-21T18:26:55.365Z,97735.94
2022-09-21T18:31:17.054Z,97745.84
2022-09-21T18:35:26.246Z,97751.72
2022-09-21T18:39:32.237Z,97760.72
2022-09-21T18:44:13.909Z,97755.25
2022-09-21T18:48:58.236Z,97761.91
2022-09-21T18:53:15.532Z,97751.84
2022-09-21T18:57:15.045Z,97754.66
2022-09-21T19:01:13.776Z,97753.97
2022-09-21T19:05:14.703Z,97761.66
2022-09-21T19:09:52.149Z,97747.69
2022-09-21T19:14:26.830Z,97756.78
2022-09-21T19:18:46.867Z,97743.53
2022-09-21T19:23:01.135Z,97758.09
2022-09-21T19:27:22.943Z,97757.66
2022-09-21T19:31:20.484Z,97751.84
2022-09-21T19:35:26.495Z,97751.91
2022-09-21T19:39:23.851Z,97768.84
2022-09-21T19:43:36.676Z,97753.31
2022-09-21T19:48:04.225Z,97756.72
2022-09-21T19:52:05.308Z,97770.47
2022-09-21T19:56:21.788Z,97757.91
2022-09-21T20:00:19.483Z,97752.31
2022-09-21T20:04:25.390Z,97758.03
2022-09-21T20:08:40.137Z,97753.53
2022-09-21T20:13:10.188Z,97763.47
2022-09-21T20:17:15.742Z,97752.91
2022-09-21T20:21:18.880Z,97765.28
2022-09-21T20:25:27.634Z,97765.38
2022-09-21T20:29:24.666Z,97764.19
2022-09-21T20:33:24.213Z,97757.91
2022-09-21T20:37:22.484Z,97770.34
2022-09-21T20:41:20.593Z,97777.09
2022-09-21T20:45:17.694Z,97773.53
2022-09-21T20:49:15.457Z,97770.91
2022-09-21T20:53:12.979Z,97780.41
2022-09-21T20:57:10.537Z,97778.00
2022-09-21T21:01:08.834Z,97769.69
2022-09-21T21:05:08.409Z,97776.19
2022-09-21T21:09:05.444Z,97778.16
2022-09-21T21:13:03.217Z,97783.03
2022-09-21T21:17:02.858Z,97768.22
2022-09-21T21:21:04.272Z,97773.09
2022-09-21T21:25:01.269Z,97768.09
2022-09-21T21:28:58.250Z,97763.31
2022-09-21T21:32:56.042Z,97776.78
2022-09-21T21:36:56.247Z,97774.50
2022-09-21T21:40:55.709Z,97777.00
2022-09-21T21:44:52.728Z,97766.47
2022-09-21T21:48:52.208Z,97771.91
2022-09-21T21:52:49.141Z,97766.09
2022-09-21T21:56:46.354Z,97760.53
2022-09-21T22:00:43.381Z,97756.13
2022-09-21T22:04:42.603Z,97760.31
2022-09-21T22:08:40.890Z,97764.47
2022-09-21T22:12:37.845Z,97760.31
2022-09-21T22:16:37.962Z,97745.91
2022-09-21T22:20:35.228Z,97717.78
2022-09-21T22:24:32.213Z,97743.84
2022-09-21T22:28:29.278Z,97752.88
2022-09-21T22:32:26.243Z,97746.50
2022-09-21T22:36:26.580Z,97742.56
2022-09-21T22:40:23.635Z,97753.97
2022-09-21T22:44:20.638Z,97748.53
2022-09-21T22:48:17.581Z,97737.38
2022-09-21T22:52:14.644Z,97755.34
2022-09-21T22:56:21.422Z,97728.31
2022-09-21T23:00:18.526Z,97724.56
2022-09-21T23:04:15.648Z,97744.63
2022-09-21T23:08:12.833Z,97732.84
2022-09-21T23:12:10.012Z,97716.91
2022-09-21T23:16:10.913Z,97737.19
2022-09-21T23:20:09.273Z,97734.19
2022-09-21T23:24:06.430Z,97725.66
2022-09-21T23:28:03.431Z,97720.91
2022-09-21T23:32:00.657Z,97716.03
2022-09-21T23:35:57.793Z,97736.56
2022-09-21T23:39:54.964Z,97718.28
2022-09-21T23:43:52.540Z,97726.56
2022-09-21T23:47:49.492Z,97724.47
2022-09-21T23:51:46.664Z,97736.44
2022-09-21T23:55:43.656Z,97737.06
2022-09-21T23:59:40.683Z,97704.28
